Time;durP1;ratioP1;P1;durP2;ratioP2;P2;SDS_P1;SDS_P2;PMS_P1;PMS_P2;Temp;Humidity;BMP_temperature;BMP_pressure;BME280_temperature;BME280_humidity;BME280_pressure;Samples;Min_cycle;Max_cycle;Signal;HPM_P1;HPM_P2
2021/07/19 00:01:16;;;;;;;15.90;7.38;;;16.80;99.90;;;;;;5060859;28;20516;-48
2021/07/19 00:03:41;;;;;;;15.20;7.72;;;16.80;99.90;;;;;;5059687;28;20095;-47
2021/07/19 00:06:07;;;;;;;21.48;8.02;;;16.90;99.90;;;;;;5059139;28;20275;-47
2021/07/19 00:08:32;;;;;;;14.90;8.10;;;16.90;99.90;;;;;;5062032;28;20028;-47
2021/07/19 00:10:58;;;;;;;19.73;7.68;;;16.90;99.90;;;;;;5041800;28;20017;-48
2021/07/19 00:13:24;;;;;;;14.40;7.10;;;16.90;99.90;;;;;;5053250;28;20394;-46
2021/07/19 00:15:50;;;;;;;15.23;8.07;;;17.00;99.90;;;;;;5058842;28;20032;-46
2021/07/19 00:18:16;;;;;;;19.27;7.68;;;17.00;99.90;;;;;;5060380;28;20036;-46
2021/07/19 00:20:42;;;;;;;15.43;7.55;;;17.00;99.90;;;;;;5060420;28;20111;-47
2021/07/19 00:23:08;;;;;;;12.82;7.45;;;17.00;99.90;;;;;;5058493;28;20052;-47
2021/07/19 00:25:33;;;;;;;16.60;7.88;;;17.00;99.90;;;;;;5059689;28;20059;-46
2021/07/19 00:27:59;;;;;;;21.67;8.18;;;17.00;99.90;;;;;;5057877;28;20029;-46
2021/07/19 00:30:25;;;;;;;16.75;8.05;;;17.00;99.90;;;;;;5060140;28;20030;-47
2021/07/19 00:32:51;;;;;;;15.20;7.78;;;17.00;99.90;;;;;;5059619;28;20544;-46
2021/07/19 00:35:17;;;;;;;18.73;8.18;;;17.00;99.90;;;;;;5056237;28;20128;-48
2021/07/19 00:37:43;;;;;;;17.67;8.05;;;17.10;99.90;;;;;;5059949;28;20453;-46
2021/07/19 00:40:20;;;;;;;15.18;7.72;;;17.10;99.90;;;;;;5059900;28;20025;-49
2021/07/19 00:42:46;;;;;;;21.83;8.18;;;17.10;99.90;;;;;;5057417;28;20025;-47
2021/07/19 00:45:25;;;;;;;18.05;8.02;;;17.10;99.90;;;;;;5057906;28;20861;-50
2021/07/19 00:47:52;;;;;;;18.13;7.43;;;17.10;99.90;;;;;;5058837;28;20028;-48
2021/07/19 00:50:19;;;;;;;14.43;6.93;;;17.10;99.90;;;;;;5056307;28;20043;-46
2021/07/19 00:52:45;;;;;;;11.23;6.38;;;17.10;99.90;;;;;;5058676;28;20016;-48
2021/07/19 00:55:12;;;;;;;16.05;8.70;;;17.10;99.90;;;;;;5058963;28;20224;-48
2021/07/19 00:57:40;;;;;;;20.30;8.15;;;17.10;99.90;;;;;;5059539;28;20021;-47
2021/07/19 01:00:09;;;;;;;15.43;7.78;;;17.10;99.90;;;;;;5057403;28;20036;-49
2021/07/19 01:02:38;;;;;;;19.23;7.80;;;17.10;99.90;;;;;;5060740;28;20024;-49
2021/07/19 01:05:05;;;;;;;14.27;7.75;;;17.00;99.90;;;;;;5057822;28;20032;-45
2021/07/19 01:07:33;;;;;;;14.48;8.07;;;17.00;99.90;;;;;;5061126;28;20028;-46
2021/07/19 01:09:59;;;;;;;13.02;7.38;;;17.00;99.90;;;;;;5058929;28;20025;-47
2021/07/19 01:12:25;;;;;;;19.85;8.43;;;16.90;99.90;;;;;;5046581;28;20093;-47
2021/07/19 01:14:51;;;;;;;13.55;7.90;;;16.90;99.90;;;;;;5064725;28;20114;-46
2021/07/19 01:17:16;;;;;;;13.23;7.93;;;16.80;99.90;;;;;;5058398;28;20029;-45
2021/07/19 01:19:48;;;;;;;19.95;8.40;;;16.80;99.90;;;;;;5056020;28;20345;-45
2021/07/19 01:22:41;;;;;;;11.48;6.82;;;16.80;99.90;;;;;;5064197;28;20036;-45
2021/07/19 01:25:16;;;;;;;18.55;9.05;;;16.80;99.90;;;;;;5056280;28;20024;-46
2021/07/19 01:27:56;;;;;;;20.88;8.07;;;16.80;99.90;;;;;;5059165;28;20016;-49
2021/07/19 01:30:22;;;;;;;;;;;16.80;99.90;;;;;;5049196;28;20020;-46
2021/07/19 01:32:49;;;;;;;15.18;8.90;;;16.80;99.90;;;;;;5058919;28;19912;-47
2021/07/19 01:35:15;;;;;;;23.33;8.65;;;16.80;99.90;;;;;;5058459;28;20024;-46
2021/07/19 01:37:45;;;;;;;15.18;8.13;;;16.70;99.90;;;;;;5059519;28;20024;-47
2021/07/19 01:40:11;;;;;;;17.40;8.38;;;16.70;99.90;;;;;;5059047;28;20013;-47
2021/07/19 01:42:38;;;;;;;17.88;9.27;;;16.70;99.90;;;;;;5057730;28;20116;-46
2021/07/19 01:45:08;;;;;;;18.15;8.45;;;16.60;99.90;;;;;;5057364;28;20020;-47
2021/07/19 01:47:35;;;;;;;28.05;9.77;;;16.60;99.90;;;;;;5059480;28;20025;-46
2021/07/19 01:50:01;;;;;;;16.15;9.05;;;16.60;99.90;;;;;;5052635;28;20026;-47
2021/07/19 01:52:27;;;;;;;16.98;9.02;;;16.40;99.90;;;;;;5029234;28;20487;-46
2021/07/19 01:54:53;;;;;;;19.27;9.60;;;16.40;99.90;;;;;;5028562;28;20079;-49
2021/07/19 01:57:20;;;;;;;17.00;9.02;;;16.30;99.90;;;;;;5029205;28;20025;-46
2021/07/19 01:59:47;;;;;;;15.77;8.68;;;16.20;99.90;;;;;;5029147;28;20267;-46
2021/07/19 02:02:15;;;;;;;16.23;8.75;;;16.10;99.90;;;;;;5028917;28;20025;-48
2021/07/19 02:04:41;;;;;;;18.02;9.38;;;16.00;99.90;;;;;;5032623;28;20021;-46
2021/07/19 02:07:07;;;;;;;15.43;9.50;;;16.00;99.90;;;;;;5034271;28;20030;-46
2021/07/19 02:09:34;;;;;;;15.65;9.20;;;15.90;99.90;;;;;;5033161;28;20482;-46
2021/07/19 02:12:03;;;;;;;13.30;9.07;;;15.80;99.90;;;;;;5037334;28;20030;-46
2021/07/19 02:14:29;;;;;;;16.80;9.75;;;15.80;99.90;;;;;;5032406;28;20029;-47
2021/07/19 02:16:55;;;;;;;18.27;9.77;;;15.80;99.90;;;;;;5034064;28;20029;-47
2021/07/19 02:19:24;;;;;;;17.55;9.55;;;15.80;99.90;;;;;;5036036;28;20481;-47
2021/07/19 02:21:50;;;;;;;17.98;8.85;;;15.70;99.90;;;;;;5034985;28;20025;-47
2021/07/19 02:24:17;;;;;;;20.15;8.82;;;15.70;99.90;;;;;;5034169;28;20477;-46
2021/07/19 02:26:44;;;;;;;17.05;9.10;;;15.70;99.90;;;;;;5033491;28;20026;-46
2021/07/19 02:29:10;;;;;;;18.45;9.75;;;15.70;99.90;;;;;;5061606;28;20030;-46
2021/07/19 02:31:36;;;;;;;20.60;9.43;;;15.60;99.90;;;;;;5050462;28;20029;-45
2021/07/19 02:34:02;;;;;;;19.90;9.32;;;15.70;99.90;;;;;;5062776;28;20032;-45
2021/07/19 02:36:29;;;;;;;18.48;9.00;;;15.70;99.90;;;;;;5052603;28;20482;-46
2021/07/19 02:38:55;;;;;;;19.85;9.60;;;15.60;99.90;;;;;;5063729;28;20224;-45
2021/07/19 02:41:24;;;;;;;16.25;9.13;;;15.60;99.90;;;;;;5055079;28;20029;-46
2021/07/19 02:43:51;;;;;;;18.55;8.73;;;15.50;99.90;;;;;;5047275;28;20021;-47
2021/07/19 02:46:22;;;;;;;20.08;9.52;;;15.50;99.90;;;;;;5050756;28;20039;-46
2021/07/19 02:48:51;;;;;;;19.10;9.55;;;15.60;99.90;;;;;;5048534;28;20360;-46
2021/07/19 02:51:17;;;;;;;26.58;9.82;;;15.60;99.90;;;;;;5033729;28;20300;-47
2021/07/19 02:53:44;;;;;;;16.13;9.43;;;15.50;99.90;;;;;;5032820;28;20033;-47
2021/07/19 02:56:10;;;;;;;22.17;9.27;;;15.50;99.90;;;;;;5031950;28;20398;-46
2021/07/19 02:58:37;;;;;;;25.98;9.95;;;15.50;99.90;;;;;;5033101;28;20530;-46
2021/07/19 03:01:03;;;;;;;16.52;8.63;;;15.50;99.90;;;;;;5034699;28;20036;-46
2021/07/19 03:03:32;;;;;;;13.73;8.40;;;15.60;99.90;;;;;;5032388;28;20061;-46
2021/07/19 03:06:07;;;;;;;16.35;8.90;;;15.60;99.90;;;;;;5031860;28;20256;-47
2021/07/19 03:08:36;;;;;;;19.88;9.18;;;15.60;99.90;;;;;;5030946;28;20029;-46
2021/07/19 03:11:06;;;;;;;18.08;9.40;;;15.60;99.90;;;;;;5034857;28;20537;-46
2021/07/19 03:13:33;;;;;;;24.13;8.57;;;15.60;99.90;;;;;;5036345;28;20521;-46
2021/07/19 03:15:59;;;;;;;16.77;8.30;;;15.60;99.90;;;;;;5037789;28;20668;-48
2021/07/19 03:18:25;;;;;;;24.00;8.52;;;15.70;99.90;;;;;;5050498;28;20490;-46
2021/07/19 03:20:53;;;;;;;15.77;7.60;;;15.60;99.90;;;;;;5055518;28;20033;-46
2021/07/19 03:23:22;;;;;;;21.10;7.35;;;15.60;99.90;;;;;;5040944;28;20135;-47
2021/07/19 03:25:48;;;;;;;24.65;9.43;;;15.70;99.90;;;;;;5051707;28;20024;-46
2021/07/19 03:28:16;;;;;;;21.48;8.40;;;15.70;99.90;;;;;;5045099;28;20016;-49
2021/07/19 03:30:43;;;;;;;21.10;7.47;;;15.70;99.90;;;;;;5051520;28;20164;-46
2021/07/19 03:33:10;;;;;;;22.20;7.50;;;15.70;99.90;;;;;;5041359;28;20017;-49
2021/07/19 03:35:36;;;;;;;16.23;7.25;;;15.70;99.90;;;;;;5051215;28;20063;-47
2021/07/19 03:38:02;;;;;;;16.30;7.55;;;15.70;99.90;;;;;;5057311;28;20056;-49
2021/07/19 03:40:28;;;;;;;23.20;8.10;;;15.70;99.90;;;;;;5044303;28;20072;-46
2021/07/19 03:42:57;;;;;;;16.48;6.97;;;15.70;99.90;;;;;;5051957;28;20032;-46
2021/07/19 03:45:24;;;;;;;21.80;7.60;;;15.70;99.90;;;;;;5043953;28;20551;-48
2021/07/19 03:47:52;;;;;;;19.67;7.13;;;15.80;99.90;;;;;;5053430;28;20278;-47
2021/07/19 03:50:18;;;;;;;17.75;7.28;;;15.70;99.90;;;;;;5047249;28;20502;-46
2021/07/19 03:52:46;;;;;;;16.60;7.38;;;15.70;99.90;;;;;;5053790;28;20028;-46
2021/07/19 03:55:15;;;;;;;13.65;7.22;;;15.60;99.90;;;;;;5054013;28;20078;-47
2021/07/19 03:57:41;;;;;;;17.48;5.85;;;15.70;99.90;;;;;;5041416;28;20021;-50
2021/07/19 04:00:13;;;;;;;20.88;6.68;;;15.70;99.90;;;;;;5052615;28;20128;-47
2021/07/19 04:02:41;;;;;;;13.98;6.70;;;15.80;99.90;;;;;;5037252;28;20546;-46
2021/07/19 04:05:09;;;;;;;19.95;7.07;;;15.80;99.90;;;;;;5029815;28;20037;-47
2021/07/19 04:07:38;;;;;;;14.77;6.18;;;15.90;99.90;;;;;;5048038;28;20428;-46
2021/07/19 04:10:17;;;;;;;20.35;7.97;;;15.90;99.90;;;;;;5050195;28;20479;-47
2021/07/19 04:12:46;;;;;;;13.05;6.43;;;15.90;99.90;;;;;;5037567;28;20030;-46
2021/07/19 04:15:13;;;;;;;15.98;5.85;;;15.90;99.90;;;;;;5052601;28;20059;-46
2021/07/19 04:17:39;;;;;;;12.48;6.07;;;15.90;99.90;;;;;;5051927;28;20021;-46
2021/07/19 04:20:08;;;;;;;13.00;6.55;;;15.90;99.90;;;;;;5058791;28;20065;-47
2021/07/19 04:22:34;;;;;;;11.82;5.75;;;15.90;99.90;;;;;;5054915;28;20040;-48
2021/07/19 04:25:04;;;;;;;14.73;6.20;;;16.00;99.90;;;;;;5060611;28;20025;-47
2021/07/19 04:27:32;;;;;;;17.35;6.03;;;16.00;99.90;;;;;;5058962;28;20028;-46
2021/07/19 04:29:57;;;;;;;16.27;5.75;;;16.00;99.90;;;;;;5058589;28;20244;-46
2021/07/19 04:32:23;;;;;;;10.77;5.40;;;16.00;99.90;;;;;;5052126;28;20033;-47
2021/07/19 04:34:49;;;;;;;18.02;6.65;;;16.00;99.90;;;;;;5064050;28;20078;-46
2021/07/19 04:37:14;;;;;;;10.45;5.45;;;16.10;99.90;;;;;;5059777;28;20095;-48
2021/07/19 04:39:41;;;;;;;18.75;6.65;;;16.10;99.90;;;;;;5061355;28;20032;-46
2021/07/19 04:42:08;;;;;;;15.38;6.00;;;16.10;99.90;;;;;;5053604;28;20053;-46
2021/07/19 04:44:34;;;;;;;16.38;5.70;;;16.10;99.90;;;;;;5032543;28;20029;-50
2021/07/19 04:47:00;;;;;;;15.57;5.25;;;16.10;99.90;;;;;;5033449;28;20033;-47
2021/07/19 04:49:27;;;;;;;17.88;6.07;;;16.10;99.90;;;;;;5036124;28;20330;-46
2021/07/19 04:51:53;;;;;;;19.40;6.63;;;16.10;99.90;;;;;;5035732;28;20053;-47
2021/07/19 04:54:25;;;;;;;21.38;6.15;;;16.10;99.90;;;;;;5033325;28;20038;-46
2021/07/19 04:56:58;;;;;;;18.48;6.13;;;16.10;99.90;;;;;;5032755;28;20032;-46
2021/07/19 04:59:27;;;;;;;10.60;5.65;;;16.10;99.90;;;;;;5030412;28;20027;-47
2021/07/19 05:01:53;;;;;;;10.15;5.50;;;16.20;99.90;;;;;;5033955;28;20033;-49
2021/07/19 05:04:24;;;;;;;14.73;5.90;;;16.20;99.90;;;;;;5039609;28;20025;-49
2021/07/19 05:06:51;;;;;;;14.38;5.20;;;16.20;99.90;;;;;;5045666;28;20032;-46
2021/07/19 05:09:18;;;;;;;14.25;5.80;;;16.30;99.90;;;;;;5043334;28;20040;-47
2021/07/19 05:11:46;;;;;;;15.68;5.35;;;16.20;99.90;;;;;;5033424;28;20041;-46
2021/07/19 05:14:12;;;;;;;13.65;5.53;;;16.30;99.90;;;;;;5049458;28;20238;-46
2021/07/19 05:16:39;;;;;;;14.55;4.97;;;16.30;99.90;;;;;;5048345;28;20482;-46
2021/07/19 05:19:04;;;;;;;16.63;5.53;;;16.30;99.90;;;;;;5044804;28;20037;-47
2021/07/19 05:21:37;;;;;;;15.75;5.85;;;16.40;99.90;;;;;;5056264;28;20089;-46
2021/07/19 05:24:04;;;;;;;13.77;5.60;;;16.40;99.90;;;;;;5047143;28;20033;-46
2021/07/19 05:26:30;;;;;;;11.32;4.88;;;16.40;99.90;;;;;;5041635;28;20033;-46
2021/07/19 05:28:56;;;;;;;12.60;5.18;;;16.50;99.90;;;;;;5029204;28;20103;-47
2021/07/19 05:31:22;;;;;;;12.55;5.15;;;16.50;99.90;;;;;;5031214;28;20021;-46
2021/07/19 05:33:48;;;;;;;11.48;4.40;;;16.50;99.90;;;;;;5034469;28;20025;-48
2021/07/19 05:36:13;;;;;;;8.13;4.13;;;16.50;99.90;;;;;;5034666;28;20471;-47
2021/07/19 05:38:41;;;;;;;9.88;3.95;;;16.60;99.90;;;;;;5032526;28;20033;-47
2021/07/19 05:41:08;;;;;;;11.65;4.97;;;16.60;99.90;;;;;;5032865;28;20391;-48
2021/07/19 05:43:34;;;;;;;9.40;4.32;;;16.60;99.90;;;;;;5027600;28;20075;-48
2021/07/19 05:46:00;;;;;;;9.65;4.45;;;16.60;99.90;;;;;;5035299;28;20518;-47
2021/07/19 05:48:25;;;;;;;9.23;3.88;;;16.50;99.90;;;;;;5032084;28;20084;-47
2021/07/19 05:50:51;;;;;;;12.10;5.05;;;16.60;99.90;;;;;;5040554;28;20037;-47
2021/07/19 05:53:16;;;;;;;13.82;4.72;;;16.70;99.90;;;;;;5049873;28;20025;-48
2021/07/19 05:55:43;;;;;;;9.32;4.15;;;16.70;99.90;;;;;;5052245;28;20021;-47
2021/07/19 05:58:08;;;;;;;13.15;4.75;;;16.70;99.90;;;;;;5064630;28;20699;-48
2021/07/19 06:00:34;;;;;;;11.05;5.03;;;16.80;99.90;;;;;;5049150;28;20053;-48
2021/07/19 06:03:00;;;;;;;9.13;4.32;;;16.80;99.90;;;;;;5049432;28;20024;-46
2021/07/19 06:05:26;;;;;;;11.02;4.90;;;16.80;99.90;;;;;;5054216;28;20044;-46
2021/07/19 06:07:51;;;;;;;10.70;4.38;;;16.80;99.90;;;;;;5047289;28;20475;-49
2021/07/19 06:10:17;;;;;;;14.82;4.72;;;16.80;99.90;;;;;;5042681;28;20029;-47
2021/07/19 06:12:43;;;;;;;7.13;3.60;;;16.90;99.90;;;;;;5049678;28;20175;-51
2021/07/19 06:15:11;;;;;;;7.97;4.10;;;16.90;99.90;;;;;;5042467;28;20080;-50
2021/07/19 06:17:37;;;;;;;10.43;4.38;;;17.00;99.90;;;;;;5059502;28;20115;-47
2021/07/19 06:20:28;;;;;;;12.00;4.78;;;17.00;99.90;;;;;;5051194;28;20435;-45
2021/07/19 06:23:00;;;;;;;11.43;4.07;;;17.00;99.90;;;;;;5053186;28;20619;-46
2021/07/19 06:25:28;;;;;;;16.20;5.07;;;17.10;99.90;;;;;;5038806;28;20116;-46
2021/07/19 06:27:54;;;;;;;11.30;4.70;;;17.20;99.90;;;;;;5035585;28;20021;-47
2021/07/19 06:30:19;;;;;;;9.90;4.90;;;17.20;99.90;;;;;;5048462;28;20028;-50
2021/07/19 06:32:45;;;;;;;11.38;4.32;;;17.20;99.90;;;;;;5055773;28;20086;-47
2021/07/19 06:35:11;;;;;;;10.23;4.15;;;17.20;99.90;;;;;;5047869;28;20057;-47
2021/07/19 06:37:37;;;;;;;12.93;4.38;;;17.30;99.90;;;;;;5054170;28;20303;-47
2021/07/19 06:40:05;;;;;;;10.85;4.30;;;17.40;99.90;;;;;;5040883;28;20033;-50
2021/07/19 06:42:31;;;;;;;13.38;4.82;;;17.40;99.90;;;;;;5046876;28;20043;-46
2021/07/19 06:44:57;;;;;;;12.10;4.30;;;17.40;99.90;;;;;;5048937;28;20024;-47
2021/07/19 06:47:23;;;;;;;16.63;4.50;;;17.50;99.90;;;;;;5049230;28;20033;-47
2021/07/19 06:49:49;;;;;;;10.45;4.03;;;17.50;99.90;;;;;;5046001;28;20037;-46
2021/07/19 06:52:14;;;;;;;12.70;4.53;;;17.50;99.90;;;;;;5049178;28;20028;-48
2021/07/19 06:54:40;;;;;;;8.50;4.07;;;17.50;99.90;;;;;;5055708;28;20546;-49
2021/07/19 06:57:06;;;;;;;12.00;3.97;;;17.50;99.90;;;;;;5048820;28;20383;-48
2021/07/19 06:59:31;;;;;;;11.05;4.35;;;17.50;99.90;;;;;;5047450;28;20056;-47
2021/07/19 07:01:56;;;;;;;10.57;4.32;;;17.60;99.90;;;;;;5050267;28;20028;-47
2021/07/19 07:04:22;;;;;;;9.25;4.10;;;17.70;99.90;;;;;;5047334;28;20044;-47
2021/07/19 07:06:47;;;;;;;10.88;4.43;;;17.80;99.90;;;;;;5039406;28;20025;-48
2021/07/19 07:09:13;;;;;;;10.13;4.07;;;17.60;99.90;;;;;;5044052;28;20075;-49
2021/07/19 07:11:39;;;;;;;10.13;4.05;;;17.70;99.90;;;;;;5041381;28;20017;-48
2021/07/19 07:14:05;;;;;;;11.32;4.60;;;17.80;99.90;;;;;;5038262;28;20021;-47
2021/07/19 07:16:31;;;;;;;11.82;4.68;;;17.90;99.90;;;;;;5043721;28;20063;-48
2021/07/19 07:18:57;;;;;;;9.60;4.70;;;17.90;99.90;;;;;;5040848;28;20033;-47
2021/07/19 07:21:23;;;;;;;12.20;4.40;;;18.10;99.90;;;;;;5039213;28;20083;-49
2021/07/19 07:23:49;;;;;;;9.77;3.72;;;18.10;99.90;;;;;;5037398;28;20391;-47
2021/07/19 07:26:15;;;;;;;9.77;3.83;;;18.20;99.90;;;;;;5034541;28;20020;-46
2021/07/19 07:28:40;;;;;;;13.05;4.70;;;18.40;99.90;;;;;;5033377;28;20033;-49
2021/07/19 07:31:06;;;;;;;11.27;3.85;;;18.40;99.90;;;;;;5043021;28;20025;-49
2021/07/19 07:33:31;;;;;;;13.60;4.82;;;18.40;99.90;;;;;;5036168;28;20029;-50
2021/07/19 07:35:57;;;;;;;10.07;5.00;;;18.60;99.90;;;;;;5038551;28;20037;-48
2021/07/19 07:38:23;;;;;;;13.23;4.95;;;18.70;99.80;;;;;;5036147;28;20036;-47
2021/07/19 07:40:49;;;;;;;12.50;5.03;;;18.90;99.90;;;;;;5037615;28;20139;-49
2021/07/19 07:43:15;;;;;;;12.90;4.07;;;19.00;98.90;;;;;;5036197;28;20024;-48
2021/07/19 07:45:40;;;;;;;13.10;4.20;;;19.20;99.70;;;;;;5036871;28;20517;-49
2021/07/19 07:48:06;;;;;;;13.50;4.82;;;19.40;99.90;;;;;;5039680;28;20511;-48
2021/07/19 07:50:31;;;;;;;8.90;4.15;;;19.30;98.80;;;;;;5036885;28;20222;-47
2021/07/19 07:52:57;;;;;;;8.10;4.00;;;19.40;99.20;;;;;;5036618;28;20037;-50
2021/07/19 07:55:22;;;;;;;11.48;4.65;;;19.50;99.00;;;;;;5034912;28;20022;-47
2021/07/19 07:57:48;;;;;;;11.25;4.30;;;19.70;97.90;;;;;;5028499;28;20021;-48
2021/07/19 08:00:17;;;;;;;12.10;4.78;;;19.80;97.60;;;;;;5036899;28;20023;-47
2021/07/19 08:02:43;;;;;;;8.43;3.75;;;19.60;97.20;;;;;;5032944;28;20026;-47
2021/07/19 08:05:10;;;;;;;12.45;3.95;;;19.40;97.90;;;;;;5037910;28;20025;-47
2021/07/19 08:07:36;;;;;;;9.60;4.30;;;19.50;98.20;;;;;;5033000;28;20025;-50
2021/07/19 08:10:05;;;;;;;12.90;4.00;;;19.40;97.60;;;;;;5037075;28;20026;-50
2021/07/19 08:12:31;;;;;;;9.60;4.03;;;19.50;97.70;;;;;;5048605;28;20363;-48
2021/07/19 08:14:58;;;;;;;10.60;4.43;;;19.60;97.30;;;;;;5046532;28;20022;-47
2021/07/19 08:17:24;;;;;;;12.25;4.50;;;19.60;96.50;;;;;;5052034;28;20025;-50
2021/07/19 08:19:50;;;;;;;8.68;4.07;;;19.60;96.30;;;;;;5058107;28;20039;-47
2021/07/19 08:22:15;;;;;;;10.85;4.28;;;19.90;96.30;;;;;;5066664;28;20029;-48
2021/07/19 08:24:41;;;;;;;13.27;4.85;;;20.00;95.60;;;;;;5046187;28;20056;-48
2021/07/19 08:27:08;;;;;;;8.10;4.13;;;20.20;96.20;;;;;;5061098;28;20077;-47
2021/07/19 08:29:33;;;;;;;8.23;4.15;;;20.10;95.90;;;;;;5057953;28;20052;-47
2021/07/19 08:31:59;;;;;;;9.57;5.22;;;20.00;96.10;;;;;;5046167;28;20048;-48
2021/07/19 08:34:24;;;;;;;10.55;4.60;;;19.80;94.80;;;;;;5063827;28;20025;-47
2021/07/19 08:36:50;;;;;;;14.07;5.40;;;19.90;95.90;;;;;;5058180;28;20108;-50
2021/07/19 08:39:16;;;;;;;9.27;5.00;;;20.10;95.90;;;;;;5061618;28;20055;-49
2021/07/19 08:41:42;;;;;;;10.68;4.40;;;20.00;95.80;;;;;;5055707;28;20029;-48
2021/07/19 08:44:10;;;;;;;9.30;4.97;;;19.90;94.80;;;;;;5055860;28;20082;-47
2021/07/19 08:46:45;;;;;;;8.13;4.75;;;20.00;96.00;;;;;;5061092;28;20025;-47
2021/07/19 08:49:11;;;;;;;10.25;4.93;;;20.00;94.90;;;;;;5060365;28;20025;-46
2021/07/19 08:51:40;;;;;;;11.57;5.30;;;19.90;94.70;;;;;;5050044;28;20020;-45
2021/07/19 08:54:09;;;;;;;8.60;4.60;;;19.70;95.50;;;;;;5058952;28;20821;-45
2021/07/19 08:56:35;;;;;;;11.00;5.53;;;19.70;95.80;;;;;;5063516;28;20032;-47
2021/07/19 08:59:01;;;;;;;11.65;5.53;;;19.60;95.70;;;;;;5059162;28;20025;-46
2021/07/19 09:01:30;;;;;;;11.65;5.28;;;19.70;95.50;;;;;;5052549;28;20082;-47
2021/07/19 09:03:55;;;;;;;14.13;6.22;;;19.60;95.40;;;;;;5058242;28;20024;-49
2021/07/19 09:06:21;;;;;;;12.75;4.72;;;19.70;94.30;;;;;;5061404;28;20116;-46
2021/07/19 09:08:51;;;;;;;12.05;5.82;;;19.70;95.50;;;;;;5058373;28;20017;-49
2021/07/19 09:11:18;;;;;;;7.50;5.07;;;19.70;95.70;;;;;;5046352;28;20028;-49
2021/07/19 09:14:03;;;;;;;9.25;4.55;;;19.80;95.40;;;;;;5060522;28;20498;-47
2021/07/19 09:16:40;;;;;;;9.63;4.97;;;19.90;94.60;;;;;;5046485;28;20024;-48
2021/07/19 09:19:08;;;;;;;15.98;5.72;;;20.10;93.90;;;;;;5041910;28;20033;-49
2021/07/19 09:21:36;;;;;;;8.43;5.43;;;20.20;95.20;;;;;;5034368;28;20087;-48
2021/07/19 09:24:10;;;;;;;12.23;5.15;;;20.60;95.00;;;;;;5042696;28;20037;-47
2021/07/19 09:26:37;;;;;;;7.88;4.68;;;20.90;94.60;;;;;;5046424;28;20504;-46
2021/07/19 09:29:05;;;;;;;15.88;4.72;;;21.30;92.70;;;;;;5054957;28;20033;-47
2021/07/19 09:31:35;;;;;;;9.60;5.35;;;21.50;91.90;;;;;;5046006;28;20321;-45
2021/07/19 09:34:03;;;;;;;7.75;5.18;;;21.60;91.30;;;;;;5055104;28;20013;-47
2021/07/19 09:36:31;;;;;;;10.70;5.30;;;21.60;91.20;;;;;;5053058;28;20060;-49
2021/07/19 09:39:09;;;;;;;7.13;4.85;;;21.50;90.70;;;;;;5054067;28;20569;-46
2021/07/19 09:41:35;;;;;;;8.15;5.05;;;21.50;91.00;;;;;;5048593;28;20091;-49
2021/07/19 09:44:06;;;;;;;8.07;4.97;;;21.70;90.80;;;;;;5049486;28;20053;-49
2021/07/19 09:46:33;;;;;;;10.57;5.10;;;21.70;90.40;;;;;;5057701;28;20557;-47
2021/07/19 09:49:00;;;;;;;7.95;5.18;;;21.60;91.30;;;;;;5051948;28;20056;-50
2021/07/19 09:51:29;;;;;;;15.70;4.72;;;21.70;89.00;;;;;;5062338;28;20027;-46
2021/07/19 09:53:55;;;;;;;7.75;4.45;;;21.50;88.80;;;;;;5049065;28;20017;-47
2021/07/19 09:56:22;;;;;;;6.80;4.32;;;21.50;89.40;;;;;;5065916;28;20025;-46
2021/07/19 09:58:52;;;;;;;6.70;4.25;;;21.40;87.10;;;;;;5052254;28;20106;-47
2021/07/19 10:01:25;;;;;;;10.73;4.65;;;21.30;89.00;;;;;;5046252;28;20033;-47
2021/07/19 10:04:21;;;;;;;8.50;4.45;;;21.40;86.70;;;;;;5050226;28;20475;-50
2021/07/19 10:06:52;;;;;;;6.38;3.83;;;21.30;85.70;;;;;;5046501;28;20513;-46
2021/07/19 10:09:18;;;;;;;;;;;21.40;81.40;;;;;;5047813;28;20025;-46
2021/07/19 10:11:52;;;;;;;8.05;4.40;;;21.50;85.90;;;;;;5056085;28;19916;-48
2021/07/19 10:14:29;;;;;;;10.00;4.93;;;21.40;85.50;;;;;;5052203;28;20032;-49
2021/07/19 10:16:59;;;;;;;5.60;4.50;;;21.50;85.20;;;;;;5055962;28;20051;-47
2021/07/19 10:19:25;;;;;;;9.13;4.68;;;21.50;86.50;;;;;;5057438;28;20037;-47
2021/07/19 10:21:52;;;;;;;7.03;5.13;;;21.30;87.40;;;;;;5062821;28;20553;-49
2021/07/19 10:24:17;;;;;;;11.93;5.95;;;21.10;87.10;;;;;;5064075;28;20037;-47
2021/07/19 10:26:44;;;;;;;10.32;5.20;;;20.90;88.90;;;;;;5059017;28;20379;-47
2021/07/19 10:29:10;;;;;;;10.73;5.60;;;20.80;90.60;;;;;;5061110;28;20020;-47
2021/07/19 10:31:36;;;;;;;9.38;5.25;;;20.60;91.20;;;;;;5051733;28;20024;-48
2021/07/19 10:34:04;;;;;;;11.27;5.32;;;20.70;90.90;;;;;;5057179;28;20083;-47
2021/07/19 10:36:47;;;;;;;11.15;5.28;;;20.80;90.90;;;;;;5061948;28;20446;-46
2021/07/19 10:39:31;;;;;;;12.00;5.55;;;20.80;88.60;;;;;;5066334;28;20053;-48
2021/07/19 10:42:02;;;;;;;8.80;4.90;;;21.10;89.80;;;;;;5049081;28;20029;-50
2021/07/19 10:44:33;;;;;;;8.75;4.32;;;21.20;90.00;;;;;;5062394;28;20042;-49
2021/07/19 10:47:10;;;;;;;12.07;5.13;;;21.30;87.60;;;;;;5062676;28;20108;-46
2021/07/19 10:49:41;;;;;;;8.40;4.50;;;21.60;87.70;;;;;;5052098;28;20030;-47
2021/07/19 10:52:12;;;;;;;7.85;4.63;;;22.00;85.40;;;;;;5056236;28;20075;-48
2021/07/19 10:54:50;;;;;;;8.88;4.63;;;22.50;83.30;;;;;;5063982;28;20258;-48
2021/07/19 10:57:18;;;;;;;9.23;4.72;;;23.10;83.10;;;;;;5061806;28;20064;-50
2021/07/19 10:59:58;;;;;;;8.02;4.20;;;23.60;81.50;;;;;;5053312;28;20029;-49
2021/07/19 11:02:28;;;;;;;10.18;4.30;;;23.60;78.40;;;;;;5054050;28;20078;-47
2021/07/19 11:04:55;;;;;;;4.55;3.95;;;23.50;77.20;;;;;;5060697;28;20513;-47
2021/07/19 11:07:23;;;;;;;7.72;4.85;;;23.40;75.70;;;;;;5061634;28;20273;-47
2021/07/19 11:09:48;;;;;;;11.10;4.57;;;23.20;75.10;;;;;;5054146;28;20027;-47
2021/07/19 11:12:17;;;;;;;10.90;4.97;;;23.10;79.10;;;;;;5060650;28;20018;-49
2021/07/19 11:14:45;;;;;;;13.13;5.30;;;23.20;78.50;;;;;;5054396;28;20022;-47
2021/07/19 11:17:11;;;;;;;9.50;4.85;;;23.10;77.90;;;;;;5058230;28;20255;-46
2021/07/19 11:19:39;;;;;;;10.27;4.97;;;22.90;79.50;;;;;;5060004;28;20037;-46
2021/07/19 11:22:18;;;;;;;6.15;4.35;;;23.80;80.90;;;;;;5052102;28;20381;-46
2021/07/19 11:24:47;;;;;;;5.97;4.18;;;24.60;75.00;;;;;;5059331;28;20020;-46
2021/07/19 11:27:18;;;;;;;8.63;4.70;;;25.00;72.20;;;;;;5060796;28;20013;-47
2021/07/19 11:29:44;;;;;;;10.65;4.38;;;25.00;72.30;;;;;;5056995;28;20095;-47
2021/07/19 11:32:26;;;;;;;7.75;4.47;;;24.20;72.50;;;;;;5058002;28;20222;-47
2021/07/19 11:34:51;;;;;;;8.32;4.65;;;23.70;74.60;;;;;;5059041;28;20025;-46
2021/07/19 11:37:18;;;;;;;8.82;4.85;;;23.20;74.90;;;;;;5047268;28;20118;-45
2021/07/19 11:39:47;;;;;;;7.13;5.15;;;22.80;77.20;;;;;;5062945;28;20064;-45
2021/07/19 11:42:13;;;;;;;10.13;4.57;;;22.90;78.20;;;;;;5060391;28;20037;-46
2021/07/19 11:44:39;;;;;;;9.05;5.10;;;22.90;78.50;;;;;;5060580;28;20104;-46
2021/07/19 11:47:06;;;;;;;6.88;5.38;;;23.10;78.60;;;;;;5057450;28;20021;-47
2021/07/19 11:49:32;;;;;;;10.23;5.15;;;23.40;78.30;;;;;;5052386;28;20099;-47
2021/07/19 11:51:59;;;;;;;7.20;4.63;;;23.30;76.40;;;;;;5056728;28;20017;-49
2021/07/19 11:54:25;;;;;;;7.20;4.57;;;23.10;76.10;;;;;;5044042;28;20020;-47
2021/07/19 11:56:55;;;;;;;5.55;4.22;;;23.10;76.60;;;;;;5054999;28;20478;-47
2021/07/19 11:59:23;;;;;;;8.90;4.57;;;23.30;77.20;;;;;;5039674;28;20028;-49
2021/07/19 12:02:03;;;;;;;8.52;4.75;;;23.50;74.20;;;;;;5038803;28;20034;-48
2021/07/19 12:04:39;;;;;;;7.22;5.55;;;23.80;72.60;;;;;;5043850;28;20056;-48
2021/07/19 12:07:06;;;;;;;7.22;4.82;;;23.90;76.60;;;;;;5037902;28;20426;-46
2021/07/19 12:09:32;;;;;;;8.77;5.25;;;24.10;77.50;;;;;;5045261;28;20025;-46
2021/07/19 12:11:58;;;;;;;6.53;4.47;;;24.10;78.20;;;;;;5037812;28;20033;-47
2021/07/19 12:14:23;;;;;;;9.52;5.15;;;24.20;77.80;;;;;;5036165;28;20371;-46
2021/07/19 12:16:49;;;;;;;6.18;4.65;;;24.20;74.10;;;;;;5039971;28;20026;-48
2021/07/19 12:19:17;;;;;;;8.02;4.88;;;24.20;76.10;;;;;;5044789;28;20111;-49
2021/07/19 12:21:52;;;;;;;8.00;5.10;;;24.10;77.60;;;;;;5057691;28;20044;-47
2021/07/19 12:24:19;;;;;;;11.70;5.22;;;24.10;75.30;;;;;;5035903;28;20025;-46
2021/07/19 12:26:47;;;;;;;9.65;5.30;;;24.20;75.00;;;;;;5031114;28;20048;-46
2021/07/19 12:29:16;;;;;;;8.48;5.30;;;24.30;75.20;;;;;;5050287;28;20048;-46
2021/07/19 12:31:44;;;;;;;11.25;5.13;;;24.10;75.80;;;;;;5035042;28;20490;-46
2021/07/19 12:34:19;;;;;;;8.52;4.93;;;24.10;75.30;;;;;;5054018;28;20017;-47
2021/07/19 12:37:01;;;;;;;8.70;5.45;;;23.80;75.00;;;;;;5034073;28;20383;-52
2021/07/19 12:39:39;;;;;;;11.20;5.90;;;23.80;75.70;;;;;;5048499;28;20507;-45
2021/07/19 12:42:13;;;;;;;8.43;5.45;;;23.70;77.20;;;;;;5034204;28;20070;-46
2021/07/19 12:44:40;;;;;;;10.45;5.65;;;23.60;77.70;;;;;;5033591;28;20026;-46